createdAt,value
2023-04-23T00:00:17.716Z,16.46
2023-04-23T00:01:17.718Z,16.45
2023-04-23T00:02:17.810Z,16.43
2023-04-23T00:03:17.861Z,16.43
2023-04-23T00:04:17.845Z,16.42
2023-04-23T00:05:17.704Z,16.41
2023-04-23T00:06:17.675Z,16.39
2023-04-23T00:07:17.623Z,16.35
2023-04-23T00:08:17.632Z,16.35
2023-04-23T00:09:17.613Z,16.34
2023-04-23T00:10:17.615Z,16.34
2023-04-23T00:11:17.603Z,16.33
2023-04-23T00:12:17.550Z,16.33
2023-04-23T00:13:17.561Z,16.30
2023-04-23T00:14:17.540Z,16.31
2023-04-23T00:15:17.521Z,16.30
2023-04-23T00:16:17.533Z,16.33
2023-04-23T00:17:17.509Z,16.31
2023-04-23T00:18:17.639Z,16.28
2023-04-23T00:19:17.625Z,16.27
2023-04-23T00:20:17.575Z,16.25
2023-04-23T00:21:17.448Z,16.21
2023-04-23T00:22:17.431Z,16.20
2023-04-23T00:23:17.423Z,16.17
2023-04-23T00:24:17.411Z,16.15
2023-04-23T00:25:17.391Z,16.14
2023-04-23T00:26:17.368Z,16.09
2023-04-23T00:27:17.362Z,16.07
2023-04-23T00:28:17.360Z,16.04
2023-04-23T00:29:17.339Z,16.01
2023-04-23T00:30:17.328Z,15.96
2023-04-23T00:31:17.439Z,15.94
2023-04-23T00:32:17.293Z,15.90
2023-04-23T00:33:17.314Z,15.90
2023-04-23T00:34:17.294Z,15.89
2023-04-23T00:35:17.262Z,15.90
2023-04-23T00:36:17.322Z,15.89
2023-04-23T00:37:17.329Z,15.89
2023-04-23T00:38:17.302Z,15.86
2023-04-23T00:39:17.229Z,15.89
2023-04-23T00:40:17.288Z,15.87
2023-04-23T00:41:17.184Z,15.86
2023-04-23T00:42:17.157Z,15.86
2023-04-23T00:43:17.160Z,15.89
2023-04-23T00:44:17.142Z,15.89
2023-04-23T00:45:17.126Z,15.89
2023-04-23T00:46:17.280Z,15.89
2023-04-23T00:47:17.125Z,15.89
2023-04-23T00:48:17.090Z,15.87
2023-04-23T00:49:17.073Z,15.89
2023-04-23T00:50:17.066Z,15.87
2023-04-23T00:51:17.051Z,15.87
2023-04-23T00:52:17.030Z,15.87
2023-04-23T00:53:17.026Z,15.86
2023-04-23T00:54:17.001Z,15.84
2023-04-23T00:55:16.993Z,15.84
2023-04-23T00:56:16.974Z,15.83
2023-04-23T00:57:16.973Z,15.82
2023-04-23T00:58:16.962Z,15.82
2023-04-23T00:59:16.940Z,15.80
2023-04-23T01:00:16.973Z,15.80
2023-04-23T01:01:16.913Z,15.80
2023-04-23T01:02:16.990Z,15.78
2023-04-23T01:03:16.981Z,15.80
2023-04-23T01:04:18.259Z,15.80
2023-04-23T01:05:16.861Z,15.76
2023-04-23T01:06:16.917Z,15.78
2023-04-23T01:07:16.842Z,15.78
2023-04-23T01:08:16.848Z,15.78
2023-04-23T01:09:16.813Z,15.78
2023-04-23T01:10:17.204Z,15.75
2023-04-23T01:11:16.782Z,15.75
2023-04-23T01:12:16.779Z,15.75
2023-04-23T01:13:16.776Z,15.75
2023-04-23T01:14:16.740Z,15.74
2023-04-23T01:15:16.783Z,15.72
2023-04-23T01:16:16.769Z,15.71
2023-04-23T01:17:16.709Z,15.72
2023-04-23T01:18:16.734Z,15.71
2023-04-23T01:19:16.677Z,15.68
2023-04-23T01:20:16.672Z,15.68
2023-04-23T01:21:16.657Z,15.69
2023-04-23T01:22:16.635Z,15.71
2023-04-23T01:23:16.642Z,15.71
2023-04-23T01:24:16.642Z,15.71
2023-04-23T01:25:16.602Z,15.72
2023-04-23T01:26:16.583Z,15.72
2023-04-23T01:27:16.582Z,15.71
2023-04-23T01:28:16.573Z,15.71
2023-04-23T01:29:16.553Z,15.69
2023-04-23T01:30:16.534Z,15.69
2023-04-23T01:31:16.565Z,15.69
2023-04-23T01:32:16.503Z,15.71
2023-04-23T01:33:16.512Z,15.68
2023-04-23T01:34:16.473Z,15.69
2023-04-23T01:35:16.488Z,15.71
2023-04-23T01:36:16.459Z,15.71
2023-04-23T01:37:16.444Z,15.68
2023-04-23T01:38:16.442Z,15.69
2023-04-23T01:39:16.419Z,15.68
2023-04-23T01:40:16.416Z,15.67
2023-04-23T01:41:16.393Z,15.67
2023-04-23T01:42:16.388Z,15.67
2023-04-23T01:43:16.396Z,15.67
2023-04-23T01:44:16.354Z,15.67
2023-04-23T01:45:16.341Z,15.65
2023-04-23T01:46:16.355Z,15.65
2023-04-23T01:47:16.311Z,15.62
2023-04-23T01:48:16.304Z,15.64
2023-04-23T01:49:16.303Z,15.62
2023-04-23T01:50:16.279Z,15.60
2023-04-23T01:51:16.268Z,15.59
2023-04-23T01:52:16.257Z,15.59
2023-04-23T01:53:16.253Z,15.59
2023-04-23T01:54:16.218Z,15.59
2023-04-23T01:55:16.223Z,15.59
2023-04-23T01:56:16.189Z,15.57
2023-04-23T01:57:16.180Z,15.57
2023-04-23T01:58:16.167Z,15.57
2023-04-23T01:59:16.157Z,15.59
2023-04-23T02:00:16.147Z,15.59
2023-04-23T02:01:16.159Z,15.59
2023-04-23T02:02:16.138Z,15.57
2023-04-23T02:03:16.276Z,15.56
2023-04-23T02:04:16.192Z,15.56
2023-04-23T02:05:16.080Z,15.56
2023-04-23T02:06:16.056Z,15.56
2023-04-23T02:07:16.050Z,15.56
2023-04-23T02:08:16.042Z,15.56
2023-04-23T02:09:16.035Z,15.56
2023-04-23T02:10:16.012Z,15.57
2023-04-23T02:11:16.009Z,15.59
2023-04-23T02:12:15.983Z,15.57
2023-04-23T02:13:15.980Z,15.59
2023-04-23T02:14:15.952Z,15.57
2023-04-23T02:15:15.953Z,15.56
2023-04-23T02:16:15.958Z,15.56
2023-04-23T02:17:15.930Z,15.53
2023-04-23T02:18:15.917Z,15.50
2023-04-23T02:19:16.037Z,15.50
2023-04-23T02:20:15.870Z,15.49
2023-04-23T02:21:15.871Z,15.47
2023-04-23T02:22:15.845Z,15.44
2023-04-23T02:23:15.846Z,15.41
2023-04-23T02:24:15.827Z,15.35
2023-04-23T02:25:15.825Z,15.32
2023-04-23T02:26:15.806Z,15.25
2023-04-23T02:27:15.785Z,15.23
2023-04-23T02:28:15.780Z,15.16
2023-04-23T02:29:15.769Z,15.10
2023-04-23T02:30:15.768Z,15.06
2023-04-23T02:31:15.763Z,14.99
2023-04-23T02:32:15.728Z,14.94
2023-04-23T02:33:15.721Z,14.86
2023-04-23T02:34:15.689Z,14.81
2023-04-23T02:35:15.704Z,14.77
2023-04-23T02:36:15.740Z,14.73
2023-04-23T02:37:15.674Z,14.65
2023-04-23T02:38:15.895Z,14.62
2023-04-23T02:39:17.078Z,14.58
2023-04-23T02:40:15.632Z,14.55
2023-04-23T02:41:15.619Z,14.51
2023-04-23T02:42:15.592Z,14.47
2023-04-23T02:43:15.609Z,14.45
2023-04-23T02:44:15.574Z,14.42
2023-04-23T02:45:15.556Z,14.37
2023-04-23T02:46:15.623Z,14.35
2023-04-23T02:47:15.515Z,14.32
2023-04-23T02:48:15.521Z,14.28
2023-04-23T02:49:15.522Z,14.27
2023-04-23T02:50:15.510Z,14.24
2023-04-23T02:51:15.508Z,14.24
2023-04-23T02:52:15.475Z,14.21
2023-04-23T02:53:15.462Z,14.18
2023-04-23T02:54:15.465Z,14.18
2023-04-23T02:55:15.432Z,14.20
2023-04-23T02:56:15.507Z,14.18
2023-04-23T02:57:15.413Z,14.18
2023-04-23T02:58:15.398Z,14.17
2023-04-23T02:59:15.379Z,14.15
2023-04-23T03:00:15.385Z,14.15
2023-04-23T03:01:15.408Z,14.12
2023-04-23T03:02:15.395Z,14.09
2023-04-23T03:03:15.495Z,14.07
2023-04-23T03:04:15.333Z,14.07
2023-04-23T03:05:15.296Z,14.04
2023-04-23T03:06:15.279Z,14.04
2023-04-23T03:07:15.263Z,14.04
2023-04-23T03:08:15.280Z,14.02
2023-04-23T03:09:15.250Z,13.97
2023-04-23T03:10:15.254Z,13.96
2023-04-23T03:11:15.221Z,13.97
2023-04-23T03:12:15.208Z,13.95
2023-04-23T03:13:15.194Z,13.92
2023-04-23T03:14:15.193Z,13.95
2023-04-23T03:15:15.173Z,13.92
2023-04-23T03:16:15.171Z,13.89
2023-04-23T03:17:15.129Z,13.89
2023-04-23T03:18:15.144Z,13.85
2023-04-23T03:19:15.112Z,13.84
2023-04-23T03:20:15.126Z,13.84
2023-04-23T03:21:15.091Z,13.82
2023-04-23T03:22:15.094Z,13.82
2023-04-23T03:23:15.081Z,13.79
2023-04-23T03:24:15.059Z,13.79
2023-04-23T03:25:15.025Z,13.77
2023-04-23T03:26:15.025Z,13.77
2023-04-23T03:27:15.019Z,13.73
2023-04-23T03:28:15.006Z,13.73
2023-04-23T03:29:14.991Z,13.71
2023-04-23T03:30:14.983Z,13.69
2023-04-23T03:31:15.062Z,13.70
2023-04-23T03:32:14.940Z,13.69
2023-04-23T03:33:14.947Z,13.69
2023-04-23T03:34:14.937Z,13.67
2023-04-23T03:35:14.917Z,13.69
2023-04-23T03:36:14.892Z,13.67
2023-04-23T03:37:14.884Z,13.67
2023-04-23T03:38:14.894Z,13.67
2023-04-23T03:39:14.852Z,13.63
2023-04-23T03:40:14.851Z,13.62
2023-04-23T03:41:14.834Z,13.62
2023-04-23T03:42:14.829Z,13.62
2023-04-23T03:43:14.812Z,13.59
2023-04-23T03:44:14.796Z,13.59
2023-04-23T03:45:14.764Z,13.59
2023-04-23T03:46:14.778Z,13.57
2023-04-23T03:47:14.743Z,13.54
2023-04-23T03:48:14.756Z,13.48
2023-04-23T03:49:14.717Z,13.51
2023-04-23T03:50:14.710Z,13.46
2023-04-23T03:51:14.694Z,13.46
2023-04-23T03:52:14.710Z,13.45
2023-04-23T03:53:14.674Z,13.44
2023-04-23T03:54:14.660Z,13.42
2023-04-23T03:55:14.652Z,13.42
2023-04-23T03:56:14.649Z,13.41
2023-04-23T03:57:14.641Z,13.44
2023-04-23T03:58:14.613Z,13.41
2023-04-23T03:59:14.615Z,13.39
2023-04-23T04:00:14.605Z,13.33
2023-04-23T04:01:14.591Z,13.29
2023-04-23T04:02:14.641Z,13.26
2023-04-23T04:03:14.768Z,13.20
2023-04-23T04:04:14.847Z,13.22
2023-04-23T04:05:14.648Z,13.12
2023-04-23T04:06:14.533Z,13.12
2023-04-23T04:07:14.531Z,13.07
2023-04-23T04:08:14.510Z,13.07
2023-04-23T04:09:14.502Z,13.03
2023-04-23T04:10:14.517Z,13.00
2023-04-23T04:11:14.445Z,13.01
2023-04-23T04:12:14.435Z,12.97
2023-04-23T04:13:14.449Z,12.96
2023-04-23T04:14:14.427Z,12.97
2023-04-23T04:15:14.439Z,12.93
2023-04-23T04:16:14.403Z,12.90
2023-04-23T04:17:14.360Z,12.89
2023-04-23T04:18:14.549Z,12.87
2023-04-23T04:19:14.346Z,12.83
2023-04-23T04:20:14.374Z,12.78
2023-04-23T04:21:14.344Z,12.78
2023-04-23T04:22:14.301Z,12.78
2023-04-23T04:23:14.286Z,12.75
2023-04-23T04:24:14.305Z,12.78
2023-04-23T04:25:14.265Z,12.77
2023-04-23T04:26:14.257Z,12.72
2023-04-23T04:27:14.223Z,12.71
2023-04-23T04:28:14.252Z,12.70
2023-04-23T04:29:14.223Z,12.67
2023-04-23T04:30:14.208Z,12.67
2023-04-23T04:31:14.236Z,12.67
2023-04-23T04:32:14.184Z,12.67
2023-04-23T04:33:14.170Z,12.64
2023-04-23T04:34:14.180Z,12.64
2023-04-23T04:35:14.127Z,12.59
2023-04-23T04:36:14.120Z,12.59
2023-04-23T04:37:14.125Z,12.59
2023-04-23T04:38:14.098Z,12.59
2023-04-23T04:39:14.094Z,12.57
2023-04-23T04:40:14.056Z,12.59
2023-04-23T04:41:14.036Z,12.56
2023-04-23T04:42:14.042Z,12.54
2023-04-23T04:43:14.022Z,12.54
2023-04-23T04:44:14.015Z,12.56
2023-04-23T04:45:14.005Z,12.56
2023-04-23T04:46:14.043Z,12.56
2023-04-23T04:47:13.960Z,12.54
2023-04-23T04:48:13.950Z,12.54
2023-04-23T04:49:13.937Z,12.50
2023-04-23T04:50:13.938Z,12.46
2023-04-23T04:51:13.916Z,12.42
2023-04-23T04:52:13.908Z,12.41
2023-04-23T04:53:13.898Z,12.42
2023-04-23T04:54:13.912Z,12.42
2023-04-23T04:55:13.851Z,12.39
2023-04-23T04:56:13.860Z,12.41
2023-04-23T04:57:13.820Z,12.39
2023-04-23T04:58:13.820Z,12.38
2023-04-23T04:59:13.842Z,12.38
2023-04-23T05:00:13.786Z,12.38
2023-04-23T05:01:13.806Z,12.38
2023-04-23T05:02:13.934Z,12.38
2023-04-23T05:03:14.582Z,12.38
2023-04-23T05:04:13.900Z,12.37
2023-04-23T05:05:13.735Z,12.37
2023-04-23T05:06:13.759Z,12.37
2023-04-23T05:07:13.691Z,12.37
2023-04-23T05:08:13.705Z,12.34
2023-04-23T05:09:13.812Z,12.35
2023-04-23T05:10:13.670Z,12.35
2023-04-23T05:11:13.649Z,12.35
2023-04-23T05:12:13.699Z,12.35
2023-04-23T05:13:13.629Z,12.34
2023-04-23T05:14:13.628Z,12.35
2023-04-23T05:15:13.646Z,12.35
2023-04-23T05:16:13.614Z,12.37
2023-04-23T05:17:13.742Z,12.39
2023-04-23T05:18:13.561Z,12.37
2023-04-23T05:19:13.553Z,12.37
2023-04-23T05:20:13.549Z,12.38
2023-04-23T05:21:13.504Z,12.37
2023-04-23T05:22:13.525Z,12.37
2023-04-23T05:23:13.516Z,12.37
2023-04-23T05:24:13.522Z,12.37
2023-04-23T05:25:13.519Z,12.37
2023-04-23T05:26:13.468Z,12.35
2023-04-23T05:27:13.481Z,12.35
2023-04-23T05:28:13.428Z,12.39
2023-04-23T05:29:13.433Z,12.38
2023-04-23T05:30:13.411Z,12.41
2023-04-23T05:31:13.402Z,12.41
2023-04-23T05:32:13.419Z,12.46
2023-04-23T05:33:13.371Z,12.47
2023-04-23T05:34:13.376Z,12.47
2023-04-23T05:35:13.338Z,12.47
2023-04-23T05:36:13.328Z,12.52
2023-04-23T05:37:13.297Z,12.52
2023-04-23T05:38:13.285Z,12.49
2023-04-23T05:39:13.281Z,12.42
2023-04-23T05:40:13.264Z,12.46
2023-04-23T05:41:13.262Z,12.42
2023-04-23T05:42:13.287Z,12.46
2023-04-23T05:43:13.209Z,12.49
2023-04-23T05:44:13.216Z,12.56
2023-04-23T05:45:13.188Z,12.59
2023-04-23T05:46:13.217Z,12.65
2023-04-23T05:47:13.209Z,12.65
2023-04-23T05:48:13.149Z,12.65
2023-04-23T05:49:13.141Z,12.65
2023-04-23T05:50:13.127Z,12.64
2023-04-23T05:51:13.113Z,12.64
2023-04-23T05:52:13.113Z,12.57
2023-04-23T05:53:13.093Z,12.57
2023-04-23T05:54:13.095Z,12.56
2023-04-23T05:55:13.096Z,12.57
2023-04-23T05:56:13.043Z,12.59
2023-04-23T05:57:13.121Z,12.59
2023-04-23T05:58:13.078Z,12.56
2023-04-23T05:59:13.029Z,12.59
2023-04-23T06:00:13.044Z,12.62
2023-04-23T06:01:12.980Z,12.62
2023-04-23T06:02:13.066Z,12.62
2023-04-23T06:03:13.077Z,12.65
2023-04-23T06:04:13.103Z,12.68
2023-04-23T06:05:13.091Z,12.67
2023-04-23T06:06:12.940Z,12.70
2023-04-23T06:07:12.924Z,12.62
2023-04-23T06:08:12.901Z,12.60
2023-04-23T06:09:12.914Z,12.62
2023-04-23T06:10:12.907Z,12.65
2023-04-23T06:11:12.862Z,12.68
2023-04-23T06:12:12.845Z,12.59
2023-04-23T06:13:12.820Z,12.59
2023-04-23T06:14:12.830Z,12.60
2023-04-23T06:15:12.857Z,12.68
2023-04-23T06:16:12.850Z,12.68
2023-04-23T06:17:12.951Z,12.74
2023-04-23T06:18:12.803Z,12.75
2023-04-23T06:19:12.762Z,12.77
2023-04-23T06:20:12.744Z,12.77
2023-04-23T06:21:12.749Z,12.77
2023-04-23T06:22:12.741Z,12.78
2023-04-23T06:23:12.687Z,12.82
2023-04-23T06:24:12.711Z,12.78
2023-04-23T06:25:12.683Z,12.77
2023-04-23T06:26:12.667Z,12.83
2023-04-23T06:27:12.681Z,12.82
2023-04-23T06:28:12.629Z,12.85
2023-04-23T06:29:12.638Z,12.75
2023-04-23T06:30:12.651Z,12.75
2023-04-23T06:31:12.719Z,12.75
2023-04-23T06:32:12.661Z,12.68
2023-04-23T06:33:12.561Z,12.67
2023-04-23T06:34:12.629Z,12.60
2023-04-23T06:35:12.558Z,12.56
2023-04-23T06:36:12.549Z,12.60
2023-04-23T06:37:12.529Z,12.59
2023-04-23T06:38:12.509Z,12.65
2023-04-23T06:39:12.492Z,12.57
2023-04-23T06:40:12.486Z,12.53
2023-04-23T06:41:12.455Z,12.52
2023-04-23T06:42:12.454Z,12.52
2023-04-23T06:43:12.438Z,12.57
2023-04-23T06:44:12.428Z,12.57
2023-04-23T06:45:12.414Z,12.60
2023-04-23T06:46:12.402Z,12.54
2023-04-23T06:47:12.529Z,12.49
2023-04-23T06:48:12.431Z,12.47
2023-04-23T06:49:12.374Z,12.47
2023-04-23T06:50:12.411Z,12.47
2023-04-23T06:51:12.349Z,12.45
2023-04-23T06:52:12.325Z,12.49
2023-04-23T06:53:12.418Z,12.46
2023-04-23T06:54:12.320Z,12.45
2023-04-23T06:55:12.276Z,12.45
2023-04-23T06:56:12.271Z,12.39
2023-04-23T06:57:12.258Z,12.41
2023-04-23T06:58:13.661Z,12.39
2023-04-23T06:59:12.337Z,12.49
2023-04-23T07:00:12.400Z,12.52
2023-04-23T07:01:12.343Z,12.52
2023-04-23T07:02:12.333Z,12.46
2023-04-23T07:03:12.385Z,12.46
2023-04-23T07:04:12.201Z,12.45
2023-04-23T07:05:12.178Z,12.38
2023-04-23T07:06:12.165Z,12.42
2023-04-23T07:07:12.152Z,12.46
2023-04-23T07:08:12.120Z,12.56
2023-04-23T07:09:12.147Z,12.53
2023-04-23T07:10:12.099Z,12.50
2023-04-23T07:11:12.106Z,12.50
2023-04-23T07:12:12.100Z,12.50
2023-04-23T07:13:12.275Z,12.45
2023-04-23T07:14:12.085Z,12.41
2023-04-23T07:15:12.065Z,12.41
2023-04-23T07:16:12.095Z,12.41
2023-04-23T07:17:12.075Z,12.37
2023-04-23T07:18:12.006Z,12.31
2023-04-23T07:19:12.051Z,12.32
2023-04-23T07:20:11.999Z,12.32
2023-04-23T07:21:11.966Z,12.34
2023-04-23T07:22:11.944Z,12.37
2023-04-23T07:23:11.936Z,12.34
2023-04-23T07:24:12.028Z,12.46
2023-04-23T07:25:12.009Z,12.42
2023-04-23T07:26:11.942Z,12.50
2023-04-23T07:27:11.928Z,12.57
2023-04-23T07:28:11.910Z,12.64
2023-04-23T07:29:11.891Z,12.72
2023-04-23T07:30:11.889Z,12.72
2023-04-23T07:31:11.854Z,12.79
2023-04-23T07:32:11.872Z,12.79
2023-04-23T07:33:11.834Z,12.93
2023-04-23T07:34:11.831Z,12.96
2023-04-23T07:35:11.801Z,12.83
2023-04-23T07:36:11.792Z,12.92
2023-04-23T07:37:11.806Z,12.90
2023-04-23T07:38:11.953Z,13.01
2023-04-23T07:39:11.791Z,13.01
2023-04-23T07:40:11.714Z,13.15
2023-04-23T07:41:11.700Z,13.15
2023-04-23T07:42:11.751Z,13.19
2023-04-23T07:43:11.672Z,13.26
2023-04-23T07:44:11.729Z,13.22
2023-04-23T07:45:11.662Z,13.29
2023-04-23T07:46:11.885Z,13.29
2023-04-23T07:47:11.676Z,13.22
2023-04-23T07:48:11.614Z,13.12
2023-04-23T07:49:11.618Z,13.12
2023-04-23T07:50:11.636Z,13.10
2023-04-23T07:51:11.601Z,13.07
2023-04-23T07:52:11.594Z,13.20
2023-04-23T07:53:11.565Z,13.33
2023-04-23T07:54:11.593Z,13.32
2023-04-23T07:55:11.530Z,13.44
2023-04-23T07:56:11.534Z,13.60
2023-04-23T07:57:11.518Z,13.78
2023-04-23T07:58:11.527Z,13.99
2023-04-23T07:59:11.482Z,14.06
2023-04-23T08:00:11.488Z,14.07
2023-04-23T08:01:11.461Z,13.96
2023-04-23T08:02:11.509Z,13.77
2023-04-23T08:03:11.530Z,13.70
2023-04-23T08:04:11.668Z,13.64
2023-04-23T08:05:11.777Z,13.67
2023-04-23T08:06:11.372Z,13.67
2023-04-23T08:07:11.362Z,14.21
2023-04-23T08:08:11.349Z,14.57
2023-04-23T08:09:11.352Z,14.43
2023-04-23T08:10:11.355Z,14.77
2023-04-23T08:11:11.324Z,15.29
2023-04-23T08:12:11.314Z,15.54
2023-04-23T08:13:11.308Z,15.47
2023-04-23T08:14:11.292Z,15.65
2023-04-23T08:15:11.269Z,15.39
2023-04-23T08:16:11.289Z,14.84
2023-04-23T08:17:11.252Z,14.88
2023-04-23T08:18:11.224Z,14.61
2023-04-23T08:19:11.388Z,14.60
2023-04-23T08:20:11.193Z,14.77
2023-04-23T08:21:11.165Z,14.80
2023-04-23T08:22:11.167Z,14.81
2023-04-23T08:23:11.168Z,15.10
2023-04-23T08:24:11.142Z,15.11
2023-04-23T08:25:11.138Z,15.25
2023-04-23T08:26:11.116Z,15.56
2023-04-23T08:27:11.130Z,15.62
2023-04-23T08:28:11.083Z,15.80
2023-04-23T08:29:11.696Z,15.96
2023-04-23T08:30:11.070Z,16.08
2023-04-23T08:31:22.695Z,16.28
2023-04-23T08:32:12.117Z,16.45
2023-04-23T08:33:11.029Z,16.56
2023-04-23T08:34:11.079Z,16.41
2023-04-23T08:35:10.998Z,16.38
2023-04-23T08:36:10.971Z,16.53
2023-04-23T08:37:19.607Z,16.63
2023-04-23T08:38:11.942Z,16.34
2023-04-23T08:39:10.947Z,16.33
2023-04-23T08:40:10.964Z,16.50
2023-04-23T08:41:10.916Z,16.61
2023-04-23T08:42:10.940Z,16.73
2023-04-23T08:43:10.908Z,16.66
2023-04-23T08:44:10.899Z,16.68
2023-04-23T08:45:10.854Z,16.57
2023-04-23T08:46:10.854Z,16.60
2023-04-23T08:47:10.844Z,16.38
2023-04-23T08:48:10.901Z,16.61
2023-04-23T08:49:10.891Z,16.86
2023-04-23T08:50:10.814Z,17.01
2023-04-23T08:51:10.806Z,17.19
2023-04-23T08:52:10.781Z,17.22
2023-04-23T08:53:10.779Z,16.79
2023-04-23T08:54:10.755Z,16.66
2023-04-23T08:55:10.864Z,16.67
2023-04-23T08:56:10.749Z,16.73
2023-04-23T08:57:10.749Z,16.64
2023-04-23T08:58:10.696Z,16.79
2023-04-23T08:59:10.713Z,16.89
2023-04-23T09:00:10.690Z,16.97
2023-04-23T09:01:10.711Z,17.00
2023-04-23T09:02:10.755Z,17.14
2023-04-23T09:03:10.973Z,17.36
2023-04-23T09:04:10.635Z,17.07
2023-04-23T09:05:10.651Z,17.37
2023-04-23T09:06:10.593Z,17.72
2023-04-23T09:07:10.635Z,17.51
2023-04-23T09:08:10.575Z,17.23
2023-04-23T09:09:10.551Z,17.07
2023-04-23T09:10:10.559Z,17.00
2023-04-23T09:11:10.559Z,17.21
2023-04-23T09:12:10.517Z,17.25
2023-04-23T09:13:10.539Z,17.22
2023-04-23T09:14:10.485Z,17.16
2023-04-23T09:15:10.507Z,17.00
2023-04-23T09:16:10.517Z,17.04
2023-04-23T09:17:10.476Z,17.08
2023-04-23T09:18:10.468Z,17.07
2023-04-23T09:19:10.445Z,16.70
2023-04-23T09:20:10.407Z,16.46
2023-04-23T09:21:10.385Z,16.23
2023-04-23T09:22:10.391Z,16.17
2023-04-23T09:23:10.360Z,15.84
2023-04-23T09:24:10.353Z,15.82
2023-04-23T09:25:10.346Z,15.92
2023-04-23T09:26:10.329Z,16.14
2023-04-23T09:27:10.309Z,16.46
2023-04-23T09:28:10.289Z,16.71
2023-04-23T09:29:10.277Z,17.01
2023-04-23T09:30:10.262Z,16.93
2023-04-23T09:31:10.256Z,17.22
2023-04-23T09:32:10.495Z,17.18
2023-04-23T09:33:10.223Z,17.14
2023-04-23T09:34:10.206Z,17.40
2023-04-23T09:35:10.213Z,17.75
2023-04-23T09:36:10.180Z,18.14
2023-04-23T09:37:10.172Z,18.30
2023-04-23T09:38:10.159Z,18.00
2023-04-23T09:39:10.154Z,18.11
2023-04-23T09:40:10.145Z,18.17
2023-04-23T09:41:10.135Z,18.10
2023-04-23T09:42:10.131Z,18.37
2023-04-23T09:43:10.145Z,18.33
2023-04-23T09:44:10.080Z,18.48
2023-04-23T09:45:10.085Z,18.73
2023-04-23T09:46:10.115Z,18.80
2023-04-23T09:47:10.054Z,18.54
2023-04-23T09:48:10.123Z,18.29
2023-04-23T09:49:10.084Z,18.27
2023-04-23T09:50:10.009Z,17.99
2023-04-23T09:51:09.995Z,18.36
2023-04-23T09:52:09.974Z,18.37
2023-04-23T09:53:09.988Z,18.63
2023-04-23T09:54:09.945Z,18.72
2023-04-23T09:55:09.963Z,18.99
2023-04-23T09:56:09.923Z,19.14
2023-04-23T09:57:09.906Z,19.33
2023-04-23T09:58:09.900Z,19.46
2023-04-23T09:59:09.884Z,19.59
2023-04-23T10:00:14.271Z,19.66
2023-04-23T10:01:10.902Z,19.55
2023-04-23T10:02:09.929Z,19.00
2023-04-23T10:03:10.266Z,18.73
2023-04-23T10:04:10.012Z,18.95
2023-04-23T10:05:21.655Z,19.02
2023-04-23T10:06:17.301Z,19.21
2023-04-23T10:07:17.923Z,19.25
2023-04-23T10:08:12.571Z,19.39
2023-04-23T10:09:09.757Z,19.44
2023-04-23T10:10:09.741Z,19.46
2023-04-23T10:11:19.956Z,19.63
2023-04-23T10:12:27.841Z,19.77
2023-04-23T10:13:10.695Z,19.51
2023-04-23T10:14:09.696Z,19.11
2023-04-23T10:15:09.681Z,18.80
2023-04-23T10:16:21.676Z,19.07
2023-04-23T10:17:10.766Z,19.07
2023-04-23T10:18:09.633Z,19.56
2023-04-23T10:19:09.633Z,19.44
2023-04-23T10:20:09.618Z,19.63
2023-04-23T10:21:09.592Z,19.78
2023-04-23T10:23:10.569Z,19.14
2023-04-23T10:24:09.550Z,19.23
2023-04-23T10:25:09.555Z,19.51
2023-04-23T10:26:09.525Z,19.83
2023-04-23T10:27:23.968Z,20.03
2023-04-23T10:28:10.492Z,20.26
2023-04-23T10:29:09.488Z,20.36
2023-04-23T10:30:09.492Z,20.48
2023-04-23T10:31:09.529Z,20.54
2023-04-23T10:32:09.452Z,19.91
2023-04-23T10:33:18.799Z,20.13
2023-04-23T10:34:10.445Z,20.28
2023-04-23T10:35:09.420Z,20.32
2023-04-23T10:36:09.394Z,20.41
2023-04-23T10:37:09.383Z,20.41
2023-04-23T10:38:09.367Z,20.54
2023-04-23T10:39:09.599Z,20.51
2023-04-23T10:40:09.382Z,20.32
2023-04-23T10:41:09.360Z,20.26
2023-04-23T10:42:09.309Z,20.31
2023-04-23T10:43:09.306Z,20.31
2023-04-23T10:44:09.359Z,20.39
2023-04-23T10:46:09.292Z,20.54
2023-04-23T10:47:09.257Z,20.57
2023-04-23T10:48:09.248Z,20.01
2023-04-23T10:49:09.235Z,19.87
2023-04-23T10:50:09.365Z,20.03
2023-04-23T10:51:35.405Z,20.24
2023-04-23T10:53:09.176Z,19.68
2023-04-23T10:54:09.182Z,19.84
2023-04-23T10:55:09.178Z,20.13
2023-04-23T10:56:09.126Z,19.77
2023-04-23T10:57:09.128Z,19.21
2023-04-23T10:58:09.105Z,18.90
2023-04-23T10:59:09.104Z,18.82
2023-04-23T11:00:09.090Z,18.67
2023-04-23T11:01:09.079Z,18.88
2023-04-23T11:02:09.302Z,18.45
2023-04-23T11:03:09.154Z,18.50
2023-04-23T11:04:09.191Z,18.87
2023-04-23T11:05:09.070Z,19.19
2023-04-23T11:06:09.009Z,19.58
2023-04-23T11:07:08.998Z,20.13
2023-04-23T11:08:18.786Z,20.50
2023-04-23T11:09:09.966Z,20.61
2023-04-23T11:10:08.960Z,20.84
2023-04-23T11:11:08.945Z,21.03
2023-04-23T11:12:08.942Z,20.92
2023-04-23T11:13:08.908Z,20.84
2023-04-23T11:14:08.900Z,20.42
2023-04-23T11:15:08.894Z,20.06
2023-04-23T11:16:08.917Z,20.06
2023-04-23T11:17:08.857Z,19.83
2023-04-23T11:18:08.895Z,19.48
2023-04-23T11:19:08.843Z,19.44
2023-04-23T11:20:08.831Z,19.99
2023-04-23T11:21:08.808Z,20.01
2023-04-23T11:22:08.803Z,20.38
2023-04-23T11:23:08.778Z,20.91
2023-04-23T11:24:08.770Z,21.12
2023-04-23T11:25:08.835Z,20.91
2023-04-23T11:26:08.739Z,20.92
2023-04-23T11:27:08.745Z,20.58
2023-04-23T11:28:08.731Z,20.20
2023-04-23T11:29:08.698Z,19.71
2023-04-23T11:30:08.702Z,19.81
2023-04-23T11:31:08.670Z,19.69
2023-04-23T11:32:08.714Z,19.69
2023-04-23T11:33:08.705Z,19.19
2023-04-23T11:34:08.649Z,19.31
2023-04-23T11:35:08.628Z,19.80
2023-04-23T11:36:08.615Z,20.26
2023-04-23T11:37:08.600Z,20.58
2023-04-23T11:38:08.585Z,20.94
2023-04-23T11:39:08.570Z,20.73
2023-04-23T11:40:08.578Z,20.74
2023-04-23T11:41:08.551Z,20.89
2023-04-23T11:42:08.546Z,20.67
2023-04-23T11:43:08.512Z,20.42
2023-04-23T11:44:08.509Z,20.14
2023-04-23T11:45:08.500Z,20.20
2023-04-23T11:46:08.506Z,20.10
2023-04-23T11:47:08.516Z,20.08
2023-04-23T11:48:08.456Z,19.95
2023-04-23T11:49:08.450Z,20.23
2023-04-23T11:50:08.438Z,20.61
2023-04-23T11:51:08.407Z,21.03
2023-04-23T11:52:08.410Z,21.14
2023-04-23T11:53:08.391Z,21.14
2023-04-23T11:54:08.377Z,21.28
2023-04-23T11:55:08.371Z,20.77
2023-04-23T11:56:08.360Z,21.14
2023-04-23T11:57:08.337Z,21.29
2023-04-23T11:58:08.324Z,21.31
2023-04-23T11:59:08.327Z,21.94
2023-04-23T12:00:08.312Z,22.14
2023-04-23T12:01:08.284Z,22.14
2023-04-23T12:02:08.349Z,22.03
2023-04-23T12:03:08.353Z,21.71
2023-04-23T12:04:08.351Z,21.52
2023-04-23T12:05:08.267Z,21.38
2023-04-23T12:06:08.221Z,21.35
2023-04-23T12:07:15.977Z,21.31
2023-04-23T12:08:09.198Z,21.42
2023-04-23T12:09:08.170Z,21.74
2023-04-23T12:10:08.179Z,21.90
2023-04-23T12:11:08.156Z,21.98
2023-04-23T12:12:08.138Z,22.09
2023-04-23T12:13:08.122Z,22.09
2023-04-23T12:14:08.115Z,21.86
2023-04-23T12:15:08.104Z,21.61
2023-04-23T12:16:10.409Z,21.28
2023-04-23T12:17:08.069Z,21.28
2023-04-23T12:18:08.079Z,20.66
2023-04-23T12:19:08.047Z,20.42
2023-04-23T12:20:08.040Z,20.28
2023-04-23T12:21:08.014Z,20.21
2023-04-23T12:22:08.017Z,20.10
2023-04-23T12:23:08.006Z,19.74
2023-04-23T12:24:07.990Z,19.63
2023-04-23T12:25:07.978Z,19.71
2023-04-23T12:26:07.964Z,19.81
2023-04-23T12:27:07.946Z,20.14
2023-04-23T12:28:07.960Z,20.13
2023-04-23T12:29:07.914Z,20.51
2023-04-23T12:30:07.916Z,20.47
2023-04-23T12:31:07.961Z,20.29
2023-04-23T12:32:07.904Z,19.88
2023-04-23T12:33:07.854Z,19.86
2023-04-23T12:34:07.874Z,20.05
2023-04-23T12:35:07.896Z,20.42
2023-04-23T12:36:07.825Z,20.74
2023-04-23T12:37:07.804Z,21.03
2023-04-23T12:38:07.798Z,21.35
2023-04-23T12:39:07.777Z,21.49
2023-04-23T12:40:07.790Z,21.44
2023-04-23T12:41:07.748Z,21.38
2023-04-23T12:42:07.751Z,21.42
2023-04-23T12:43:07.728Z,21.42
2023-04-23T12:44:07.711Z,21.47
2023-04-23T12:45:07.706Z,21.59
2023-04-23T12:46:07.692Z,21.59
2023-04-23T12:47:07.871Z,21.58
2023-04-23T12:48:07.688Z,21.47
2023-04-23T12:49:07.647Z,21.42
2023-04-23T12:50:07.652Z,21.38
2023-04-23T12:51:07.629Z,21.31
2023-04-23T12:52:07.619Z,21.17
2023-04-23T12:53:07.607Z,21.10
2023-04-23T12:54:07.598Z,21.06
2023-04-23T12:55:07.584Z,20.95